Hlavní strana
METAR-TAF:

METAR-TAF

Letiště :

Uljanovsk, Rusko

zeměpisná šířka: 54-21N, zeměpisná délka: 048-23E, výška: 77 m

Aktuální stav počasí

Zpráva byla vytvořena před 39 minutami, v 03:00 UTC
Západoseverozápadní vítr 12 kt
Teplota 3°C
Vlhkost vzduchu 65%
Tlak 1015 hPa
Viditelnost: 8000 m

METAR: UWLW 050300Z 30006MPS 8000 NSC 03/M03 Q1015 R20/CLRD60 NOSIG RMK QFE756

Čas: 06:39 (03:39 UTC)

Předpověď počasí

Zpráva byla vytvořena před 1 hodinou a 54 minutami, v 01:45 UTC
Předpověď platná od 05 v 03 UTC do 06 v 03 UTC
Severozápadní vítr 6 kt s nárazy do 17 kt
Viditelnost: 8000 m
Oblačno až skoro zataženo ve výšce 3000 ft
Dočasný
od 05 v 03 UTC do 05 v 16 UTC
Severoseverozápadní vítr 12 kt s nárazy do 25 kt

TAF: UWLW 050145Z 0503/0603 32003G09MPS 8000 BKN030 TEMPO 0503/0516 34006G13MPS

Stav a předpovědi počasí z více než 4 000 letišť (zprávy METAR a TAF).

Červené a žluté tečky na mapě představují dostupné meteorologické stanice.

Když kurzor umístíte na tečku, zobrazí se název stanice.

Pak kliknutím zobrazíte stav a předpověď počasí.

Chcete-li změnit mapu, kliknutím na zelené tlačítko se znaménkem +mapu přiblížíte, kliknutím na zelené tlačítko se znaménkem – mapu oddálíte a kliknutím na zelené šipky přejdete na sousední mapy.


METAR-TAF: